createdAt,value
2018-09-14T00:02:27.839Z,19.40
2018-09-14T00:04:58.882Z,19.40
2018-09-14T00:07:29.926Z,19.30
2018-09-14T00:10:01.115Z,19.20
2018-09-14T00:12:32.179Z,19.10
2018-09-14T00:15:03.183Z,19.10
2018-09-14T00:17:34.657Z,19.10
2018-09-14T00:20:05.714Z,19.00
2018-09-14T00:22:36.718Z,19.00
2018-09-14T00:25:07.649Z,18.80
2018-09-14T00:27:38.691Z,18.70
2018-09-14T00:30:09.827Z,18.50
2018-09-14T00:32:40.822Z,18.40
2018-09-14T00:35:12.118Z,18.40
2018-09-14T00:37:43.187Z,18.30
2018-09-14T00:40:14.296Z,18.20
2018-09-14T00:42:45.410Z,18.00
2018-09-14T00:45:16.644Z,18.00
2018-09-14T00:47:48.028Z,18.00
2018-09-14T00:50:19.129Z,17.90
2018-09-14T00:52:50.333Z,17.90
2018-09-14T00:55:21.326Z,17.90
2018-09-14T00:57:52.363Z,17.90
2018-09-14T01:00:23.373Z,17.90
2018-09-14T01:02:54.397Z,17.80
2018-09-14T01:05:26.166Z,17.70
2018-09-14T01:07:57.258Z,17.70
2018-09-14T01:10:28.299Z,17.60
2018-09-14T01:12:59.362Z,17.60
2018-09-14T01:15:30.333Z,17.60
2018-09-14T01:18:01.365Z,17.70
2018-09-14T01:22:58.098Z,18.10
2018-09-14T01:25:29.064Z,18.00
2018-09-14T01:28:00.091Z,17.90
2018-09-14T01:30:31.107Z,17.70
2018-09-14T01:33:02.365Z,17.60
2018-09-14T01:35:37.989Z,17.40
2018-09-14T01:38:09.257Z,17.30
2018-09-14T01:40:40.237Z,17.30
2018-09-14T01:43:11.233Z,17.20
2018-09-14T01:45:42.203Z,17.20
2018-09-14T01:48:13.676Z,17.10
2018-09-14T01:50:47.810Z,17.10
2018-09-14T01:53:19.488Z,17.20
2018-09-14T01:55:53.374Z,17.10
2018-09-14T01:58:24.960Z,17.10
2018-09-14T02:00:55.954Z,17.00
2018-09-14T02:03:27.028Z,17.00
2018-09-14T02:05:58.061Z,16.90
2018-09-14T02:08:29.051Z,16.80
2018-09-14T02:11:00.016Z,16.80
2018-09-14T02:13:31.054Z,16.70
2018-09-14T02:16:02.177Z,16.60
2018-09-14T02:18:35.841Z,16.50
2018-09-14T02:21:06.900Z,16.50
2018-09-14T02:23:41.736Z,16.50
2018-09-14T02:26:12.855Z,16.50
2018-09-14T02:28:44.804Z,16.40
2018-09-14T02:31:23.406Z,16.40
2018-09-14T02:33:55.222Z,16.40
2018-09-14T02:36:27.514Z,16.40
2018-09-14T02:38:58.726Z,16.40
2018-09-14T02:41:29.636Z,16.50
2018-09-14T02:44:00.596Z,16.50
2018-09-14T02:48:57.358Z,16.40
2018-09-14T02:51:28.444Z,16.20
2018-09-14T02:53:59.604Z,16.00
2018-09-14T02:56:30.581Z,16.00
2018-09-14T02:59:01.515Z,16.00
2018-09-14T03:01:32.538Z,16.00
2018-09-14T03:04:03.496Z,16.00
2018-09-14T03:06:34.447Z,15.90
2018-09-14T03:09:06.019Z,15.90
2018-09-14T03:11:37.014Z,15.90
2018-09-14T03:14:08.352Z,15.80
2018-09-14T03:19:05.048Z,15.70
2018-09-14T03:21:35.995Z,15.60
2018-09-14T03:24:07.071Z,15.60
2018-09-14T03:26:38.086Z,15.60
2018-09-14T03:29:09.151Z,15.70
2018-09-14T03:31:40.168Z,15.70
2018-09-14T03:34:11.210Z,15.80
2018-09-14T03:36:42.661Z,15.70
2018-09-14T03:39:14.254Z,15.70
2018-09-14T03:41:45.274Z,15.70
2018-09-14T03:44:16.259Z,15.60
2018-09-14T03:46:47.249Z,15.50
2018-09-14T03:49:18.527Z,15.50
2018-09-14T03:51:49.799Z,15.30
2018-09-14T03:54:20.778Z,15.30
2018-09-14T03:56:51.980Z,15.20
2018-09-14T03:59:23.125Z,15.10
2018-09-14T04:01:54.212Z,15.10
2018-09-14T04:04:25.216Z,15.00
2018-09-14T04:06:56.325Z,15.00
2018-09-14T04:09:27.485Z,15.00
2018-09-14T04:11:58.578Z,15.00
2018-09-14T04:14:29.708Z,15.00
2018-09-14T04:17:00.838Z,15.10
2018-09-14T04:19:32.351Z,15.00
2018-09-14T04:22:03.811Z,15.00
2018-09-14T04:24:34.825Z,15.00
2018-09-14T04:27:06.907Z,14.90
2018-09-14T04:29:38.947Z,14.90
2018-09-14T04:32:10.154Z,14.90
2018-09-14T04:34:41.259Z,14.90
2018-09-14T04:37:12.326Z,14.80
2018-09-14T04:39:43.605Z,14.80
2018-09-14T04:42:14.660Z,14.80
2018-09-14T04:44:46.358Z,15.00
2018-09-14T04:47:17.510Z,14.90
2018-09-14T04:49:49.048Z,14.90
2018-09-14T04:52:20.199Z,14.90
2018-09-14T04:54:51.284Z,14.90
2018-09-14T04:57:22.307Z,14.90
2018-09-14T04:59:53.434Z,14.80
2018-09-14T05:02:24.547Z,14.80
2018-09-14T05:04:56.263Z,14.80
2018-09-14T05:07:27.328Z,14.80
2018-09-14T05:09:58.306Z,14.80
2018-09-14T05:12:29.399Z,14.70
2018-09-14T05:15:00.668Z,14.70
2018-09-14T05:17:31.663Z,14.70
2018-09-14T05:20:02.732Z,14.70
2018-09-14T05:22:33.996Z,14.60
2018-09-14T05:25:05.109Z,14.60
2018-09-14T05:27:36.316Z,14.60
2018-09-14T05:30:07.497Z,14.50
2018-09-14T05:32:38.693Z,14.50
2018-09-14T05:35:09.849Z,14.60
2018-09-14T05:37:40.942Z,14.60
2018-09-14T05:40:11.971Z,14.60
2018-09-14T05:42:43.035Z,14.60
2018-09-14T05:45:14.065Z,14.50
2018-09-14T05:47:45.326Z,14.40
2018-09-14T05:50:16.372Z,14.30
2018-09-14T05:52:47.699Z,14.20
2018-09-14T05:55:18.644Z,14.10
2018-09-14T05:57:49.768Z,14.00
2018-09-14T06:00:20.918Z,13.90
2018-09-14T06:02:52.172Z,13.80
2018-09-14T06:05:23.447Z,13.70
2018-09-14T06:07:54.633Z,13.80
2018-09-14T06:10:25.694Z,13.80
2018-09-14T06:12:56.660Z,13.80
2018-09-14T06:15:27.770Z,13.90
2018-09-14T06:17:58.815Z,13.90
2018-09-14T06:20:29.888Z,13.90
2018-09-14T06:23:00.994Z,13.90
2018-09-14T06:25:32.114Z,13.90
2018-09-14T06:28:03.153Z,14.00
2018-09-14T06:30:34.172Z,14.00
2018-09-14T06:33:05.415Z,14.00
2018-09-14T06:35:36.476Z,14.00
2018-09-14T06:38:07.788Z,14.00
2018-09-14T06:40:38.948Z,14.00
2018-09-14T06:43:10.348Z,14.00
2018-09-14T06:45:41.398Z,14.00
2018-09-14T06:48:12.591Z,13.90
2018-09-14T06:53:09.452Z,13.90
2018-09-14T06:55:40.709Z,13.90
2018-09-14T06:58:11.693Z,13.90
2018-09-14T07:00:42.753Z,13.80
2018-09-14T07:03:13.910Z,13.80
2018-09-14T07:05:44.976Z,13.80
2018-09-14T07:08:16.031Z,13.80
2018-09-14T07:10:47.029Z,13.80
2018-09-14T07:13:18.118Z,13.80
2018-09-14T07:15:49.277Z,13.70
2018-09-14T07:18:20.311Z,13.90
2018-09-14T07:20:51.387Z,14.00
2018-09-14T07:23:22.645Z,13.90
2018-09-14T07:25:54.272Z,13.80
2018-09-14T07:28:25.756Z,13.70
2018-09-14T07:30:56.774Z,13.70
2018-09-14T07:33:27.870Z,13.70
2018-09-14T07:35:59.048Z,13.60
2018-09-14T07:38:30.083Z,13.60
2018-09-14T07:41:01.173Z,13.60
2018-09-14T07:43:32.272Z,13.60
2018-09-14T07:46:03.347Z,13.60
2018-09-14T07:48:34.381Z,13.60
2018-09-14T07:51:05.416Z,13.60
2018-09-14T07:53:37.061Z,13.70
2018-09-14T07:56:08.748Z,13.70
2018-09-14T07:58:40.102Z,13.70
2018-09-14T08:01:11.474Z,13.90
2018-09-14T08:03:42.592Z,13.90
2018-09-14T08:06:14.064Z,13.90
2018-09-14T08:08:45.454Z,13.90
2018-09-14T08:11:16.659Z,13.90
2018-09-14T08:13:47.803Z,13.90
2018-09-14T08:16:18.920Z,13.90
2018-09-14T08:18:50.086Z,14.00
2018-09-14T08:21:21.348Z,14.00
2018-09-14T08:23:52.662Z,13.90
2018-09-14T08:26:23.771Z,13.70
2018-09-14T08:28:54.851Z,13.70
2018-09-14T08:31:26.411Z,13.70
2018-09-14T08:33:57.648Z,13.60
2018-09-14T08:36:28.695Z,13.60
2018-09-14T08:38:59.693Z,13.60
2018-09-14T08:41:30.750Z,13.50
2018-09-14T08:44:01.821Z,13.60
2018-09-14T08:46:32.882Z,13.60
2018-09-14T08:49:04.356Z,13.50
2018-09-14T08:51:35.794Z,13.40
2018-09-14T08:54:07.164Z,13.30
2018-09-14T08:56:38.511Z,13.50
2018-09-14T08:59:09.967Z,13.50
2018-09-14T09:01:41.014Z,13.60
2018-09-14T09:04:12.095Z,13.70
2018-09-14T09:06:43.197Z,13.70
2018-09-14T09:09:15.052Z,13.70
2018-09-14T09:11:46.155Z,13.60
2018-09-14T09:14:17.272Z,13.50
2018-09-14T09:16:48.415Z,13.50
2018-09-14T09:19:19.489Z,13.40
2018-09-14T09:21:50.852Z,13.50
2018-09-14T09:24:22.010Z,13.50
2018-09-14T09:26:52.997Z,13.30
2018-09-14T09:29:24.122Z,13.10
2018-09-14T09:31:55.115Z,13.10
2018-09-14T09:34:26.194Z,13.20
2018-09-14T09:36:57.475Z,13.20
2018-09-14T09:39:28.553Z,13.30
2018-09-14T09:41:59.537Z,13.20
2018-09-14T09:44:30.551Z,13.10
2018-09-14T09:47:01.554Z,13.10
2018-09-14T09:49:32.586Z,13.00
2018-09-14T09:52:04.002Z,12.90
2018-09-14T09:54:35.078Z,12.80
2018-09-14T09:57:06.344Z,12.80
2018-09-14T09:59:37.361Z,12.70
2018-09-14T10:02:13.388Z,12.70
2018-09-14T10:05:47.176Z,12.70
2018-09-14T10:08:18.447Z,12.90
2018-09-14T10:10:49.480Z,13.00
2018-09-14T10:13:20.598Z,12.90
2018-09-14T10:15:51.742Z,13.00
2018-09-14T10:18:22.755Z,13.00
2018-09-14T10:20:53.977Z,12.90
2018-09-14T10:23:25.075Z,12.90
2018-09-14T10:25:56.108Z,12.80
2018-09-14T10:28:27.252Z,12.80
2018-09-14T10:30:58.304Z,12.80
2018-09-14T10:33:29.384Z,12.90
2018-09-14T10:36:00.614Z,12.90
2018-09-14T10:38:31.764Z,12.90
2018-09-14T10:41:02.984Z,13.00
2018-09-14T10:43:34.053Z,13.00
2018-09-14T10:46:05.406Z,12.90
2018-09-14T10:48:36.443Z,12.90
2018-09-14T10:51:07.539Z,12.80
2018-09-14T10:53:38.585Z,12.80
2018-09-14T10:56:09.727Z,12.80
2018-09-14T10:58:44.472Z,12.90
2018-09-14T11:01:16.760Z,12.90
2018-09-14T11:03:47.893Z,13.10
2018-09-14T11:06:18.983Z,13.00
2018-09-14T11:08:50.044Z,13.00
2018-09-14T11:11:21.059Z,13.00
2018-09-14T11:13:52.275Z,13.00
2018-09-14T11:16:23.328Z,13.10
2018-09-14T11:18:54.326Z,13.30
2018-09-14T11:21:25.576Z,13.50
2018-09-14T11:23:56.630Z,13.70
2018-09-14T11:26:27.912Z,13.70
2018-09-14T11:28:59.212Z,13.80
2018-09-14T11:31:30.335Z,13.90
2018-09-14T11:34:01.324Z,14.10
2018-09-14T11:36:32.385Z,14.20
2018-09-14T11:39:03.616Z,14.30
2018-09-14T11:41:34.620Z,14.40
2018-09-14T11:44:05.648Z,14.50
2018-09-14T11:46:36.846Z,14.50
2018-09-14T11:49:07.920Z,14.60
2018-09-14T11:51:38.929Z,14.60
2018-09-14T11:54:10.108Z,14.60
2018-09-14T11:56:41.128Z,14.60
2018-09-14T11:59:12.100Z,14.70
2018-09-14T12:01:43.211Z,14.70
2018-09-14T12:04:14.373Z,14.70
2018-09-14T12:06:45.457Z,14.90
2018-09-14T12:09:16.461Z,15.00
2018-09-14T12:11:47.502Z,15.00
2018-09-14T12:14:18.744Z,15.10
2018-09-14T12:16:49.801Z,15.20
2018-09-14T12:19:20.912Z,15.30
2018-09-14T12:21:52.016Z,15.40
2018-09-14T12:24:23.177Z,15.60
2018-09-14T12:26:54.323Z,15.80
2018-09-14T12:29:25.382Z,16.00
2018-09-14T12:31:56.446Z,16.20
2018-09-14T12:34:27.708Z,16.30
2018-09-14T12:36:58.894Z,16.50
2018-09-14T12:39:29.974Z,16.70
2018-09-14T12:42:01.115Z,16.80
2018-09-14T12:44:32.362Z,17.00
2018-09-14T12:47:03.397Z,17.20
2018-09-14T12:49:34.438Z,17.30
2018-09-14T12:52:05.623Z,17.50
2018-09-14T12:54:36.661Z,17.60
2018-09-14T12:57:07.695Z,17.70
2018-09-14T12:59:38.727Z,17.90
2018-09-14T13:02:09.784Z,18.10
2018-09-14T13:04:40.747Z,18.20
2018-09-14T13:07:11.764Z,18.50
2018-09-14T13:09:42.820Z,18.60
2018-09-14T13:12:13.890Z,18.90
2018-09-14T13:14:44.985Z,19.10
2018-09-14T13:17:16.058Z,19.20
2018-09-14T13:19:47.101Z,19.30
2018-09-14T13:22:18.154Z,19.50
2018-09-14T13:24:49.238Z,19.70
2018-09-14T13:27:20.337Z,19.90
2018-09-14T13:29:51.355Z,19.90
2018-09-14T13:32:22.392Z,19.90
2018-09-14T13:34:53.404Z,20.00
2018-09-14T13:37:24.473Z,20.20
2018-09-14T13:39:55.637Z,20.30
2018-09-14T13:42:26.888Z,20.40
2018-09-14T13:44:57.844Z,20.60
2018-09-14T13:47:28.870Z,20.80
2018-09-14T13:49:59.947Z,21.00
2018-09-14T13:52:31.096Z,21.20
2018-09-14T13:55:02.216Z,21.30
2018-09-14T13:57:33.291Z,21.40
2018-09-14T14:00:05.509Z,21.50
2018-09-14T14:02:36.780Z,21.50
2018-09-14T14:05:07.863Z,21.70
2018-09-14T14:07:39.146Z,21.80
2018-09-14T14:10:10.366Z,21.90
2018-09-14T14:12:41.459Z,22.10
2018-09-14T14:15:12.579Z,22.30
2018-09-14T14:17:43.683Z,22.40
2018-09-14T14:20:14.868Z,22.60
2018-09-14T14:22:46.038Z,22.80
2018-09-14T14:25:17.142Z,23.00
2018-09-14T14:27:48.149Z,23.10
2018-09-14T14:30:19.595Z,23.30
2018-09-14T14:32:50.632Z,23.50
2018-09-14T14:35:21.805Z,23.50
2018-09-14T14:37:52.869Z,23.50
2018-09-14T14:40:23.939Z,23.70
2018-09-14T14:42:54.983Z,23.70
2018-09-14T14:45:26.070Z,23.90
2018-09-14T14:47:57.182Z,24.10
2018-09-14T14:50:28.350Z,24.20
2018-09-14T14:53:10.334Z,24.50
2018-09-14T14:55:41.396Z,24.60
2018-09-14T14:58:12.463Z,24.50
2018-09-14T15:00:43.659Z,24.60
2018-09-14T15:03:14.716Z,24.70
2018-09-14T15:05:45.780Z,24.80
2018-09-14T15:08:16.834Z,25.00
2018-09-14T15:10:48.017Z,25.30
2018-09-14T15:13:19.219Z,25.60
2018-09-14T15:15:50.491Z,25.70
2018-09-14T15:18:21.693Z,25.90
2018-09-14T15:20:53.006Z,26.10
2018-09-14T15:23:24.142Z,26.10
2018-09-14T15:25:55.219Z,25.90
2018-09-14T15:28:26.342Z,25.80
2018-09-14T15:30:57.400Z,26.20
2018-09-14T15:33:28.535Z,26.50
2018-09-14T15:35:59.708Z,26.90
2018-09-14T15:38:30.882Z,26.80
2018-09-14T15:41:02.090Z,26.60
2018-09-14T15:43:33.252Z,26.90
2018-09-14T15:46:04.367Z,27.20
2018-09-14T15:48:35.646Z,27.50
2018-09-14T15:51:06.668Z,27.70
2018-09-14T15:53:37.776Z,27.80
2018-09-14T15:56:08.869Z,27.40
2018-09-14T15:58:40.075Z,27.80
2018-09-14T16:01:11.139Z,28.10
2018-09-14T16:03:42.367Z,28.20
2018-09-14T16:06:13.432Z,28.00
2018-09-14T16:08:45.258Z,28.10
2018-09-14T16:11:16.427Z,27.70
2018-09-14T16:13:47.424Z,28.30
2018-09-14T16:16:18.466Z,28.80
2018-09-14T16:18:49.687Z,28.50
2018-09-14T16:21:20.800Z,28.70
2018-09-14T16:23:52.027Z,28.30
2018-09-14T16:26:24.057Z,28.70
2018-09-14T16:31:35.007Z,29.00
2018-09-14T16:34:06.258Z,28.70
2018-09-14T16:36:37.434Z,29.00
2018-09-14T16:39:11.902Z,29.60
2018-09-14T16:41:43.412Z,29.80
2018-09-14T16:44:14.408Z,29.30
2018-09-14T16:46:45.576Z,29.60
2018-09-14T16:49:16.740Z,29.70
2018-09-14T16:51:47.768Z,29.40
2018-09-14T16:54:18.823Z,29.40
2018-09-14T16:56:49.819Z,29.30
2018-09-14T16:59:20.956Z,29.60
2018-09-14T17:01:52.021Z,29.80
2018-09-14T17:04:23.076Z,30.00
2018-09-14T17:06:54.198Z,29.90
2018-09-14T17:09:25.365Z,29.80
2018-09-14T17:11:56.545Z,30.00
2018-09-14T17:14:27.751Z,30.40
2018-09-14T17:16:58.807Z,30.70
2018-09-14T17:19:30.174Z,30.80
2018-09-14T17:22:01.235Z,30.00
2018-09-14T17:24:32.243Z,29.80
2018-09-14T17:27:03.360Z,29.80
2018-09-14T17:29:34.411Z,30.20
2018-09-14T17:32:05.631Z,30.80
2018-09-14T17:34:36.611Z,30.60
2018-09-14T17:37:07.591Z,30.70
2018-09-14T17:39:38.589Z,30.30
2018-09-14T17:42:09.578Z,30.00
2018-09-14T17:44:40.656Z,30.00
2018-09-14T17:47:11.808Z,30.70
2018-09-14T17:49:42.857Z,30.80
2018-09-14T17:52:13.851Z,30.50
2018-09-14T17:54:45.054Z,29.90
2018-09-14T17:57:16.407Z,30.20
2018-09-14T17:59:47.642Z,30.50
2018-09-14T18:02:18.719Z,30.60
2018-09-14T18:04:50.124Z,30.30
2018-09-14T18:07:21.623Z,30.70
2018-09-14T18:09:52.603Z,30.40
2018-09-14T18:12:23.577Z,30.70
2018-09-14T18:14:54.555Z,30.70
2018-09-14T18:17:25.617Z,31.00
2018-09-14T18:19:56.590Z,31.20
2018-09-14T18:22:27.671Z,31.80
2018-09-14T18:24:58.664Z,32.00
2018-09-14T18:27:29.785Z,31.70
2018-09-14T18:30:00.856Z,31.50
2018-09-14T18:32:31.845Z,31.10
2018-09-14T18:35:03.021Z,30.90
2018-09-14T18:37:33.989Z,31.40
2018-09-14T18:40:05.210Z,31.70
2018-09-14T18:42:36.269Z,31.50
2018-09-14T18:45:07.347Z,31.80
2018-09-14T18:47:38.446Z,31.20
2018-09-14T18:50:10.368Z,31.40
2018-09-14T18:52:41.459Z,31.20
2018-09-14T18:55:12.575Z,31.30
2018-09-14T18:57:43.517Z,31.10
2018-09-14T19:00:14.512Z,31.20
2018-09-14T19:02:45.477Z,31.20
2018-09-14T19:05:16.490Z,31.20
2018-09-14T19:07:47.485Z,30.50
2018-09-14T19:10:18.659Z,30.90
2018-09-14T19:12:49.760Z,31.50
2018-09-14T19:15:20.849Z,31.40
2018-09-14T19:25:54.089Z,30.70
2018-09-14T19:28:25.197Z,31.20
2018-09-14T19:30:56.343Z,31.30
2018-09-14T19:33:27.897Z,30.80
2018-09-14T19:36:01.431Z,30.80
2018-09-14T19:38:32.730Z,30.60
2018-09-14T19:41:03.893Z,30.40
2018-09-14T19:43:35.925Z,30.30
2018-09-14T19:55:19.008Z,31.10
2018-09-14T19:57:50.074Z,31.20
2018-09-14T20:00:21.069Z,31.20
2018-09-14T20:02:52.307Z,31.30
2018-09-14T20:05:23.523Z,31.40
2018-09-14T20:07:55.036Z,31.60
2018-09-14T20:10:26.103Z,31.50
2018-09-14T20:12:57.363Z,31.30
2018-09-14T20:15:28.750Z,31.40
2018-09-14T20:18:00.127Z,31.20
2018-09-14T20:20:31.390Z,31.30
2018-09-14T20:23:02.716Z,31.20
2018-09-14T20:25:33.802Z,31.00
2018-09-14T20:28:04.976Z,31.40
2018-09-14T20:30:36.250Z,31.80
2018-09-14T20:33:07.368Z,31.70
2018-09-14T20:35:38.687Z,32.00
2018-09-14T20:38:09.912Z,31.80
2018-09-14T20:40:41.198Z,31.80
2018-09-14T20:43:12.302Z,31.60
2018-09-14T20:45:43.492Z,31.50
2018-09-14T20:48:14.669Z,31.30
2018-09-14T20:50:45.816Z,31.20
2018-09-14T20:53:16.947Z,31.20
2018-09-14T20:55:48.180Z,31.10
2018-09-14T20:58:19.507Z,31.20
2018-09-14T21:00:50.766Z,31.00
2018-09-14T21:03:22.035Z,31.40
2018-09-14T21:05:53.168Z,31.40
2018-09-14T21:08:24.433Z,31.70
2018-09-14T21:10:55.694Z,31.80
2018-09-14T21:13:26.971Z,31.80
2018-09-14T21:15:58.423Z,31.60
2018-09-14T21:18:29.632Z,31.40
2018-09-14T21:21:00.675Z,31.30
2018-09-14T21:23:31.881Z,31.10
2018-09-14T21:26:03.191Z,31.00
2018-09-14T21:28:34.502Z,30.60
2018-09-14T21:31:05.502Z,30.40
2018-09-14T21:33:36.646Z,30.60
2018-09-14T21:36:07.687Z,30.80
2018-09-14T21:38:38.820Z,31.00
2018-09-14T21:41:09.864Z,30.90
2018-09-14T21:43:40.853Z,30.90
2018-09-14T21:46:11.913Z,30.90
2018-09-14T21:48:43.024Z,30.60
2018-09-14T21:51:14.312Z,30.40
2018-09-14T21:53:45.390Z,30.10
2018-09-14T21:56:16.429Z,29.90
2018-09-14T21:58:47.604Z,29.90
2018-09-14T22:01:23.299Z,29.80
2018-09-14T22:03:54.568Z,29.60
2018-09-14T22:06:25.827Z,29.30
2018-09-14T22:08:57.348Z,28.90
2018-09-14T22:11:28.373Z,28.70
2018-09-14T22:13:59.524Z,28.40
2018-09-14T22:16:30.696Z,28.10
2018-09-14T22:19:01.888Z,27.70
2018-09-14T22:21:33.228Z,27.30
2018-09-14T22:24:04.324Z,26.80
2018-09-14T22:26:35.503Z,26.50
2018-09-14T22:29:06.723Z,26.20
2018-09-14T22:31:37.836Z,26.00
2018-09-14T22:34:08.939Z,25.80
2018-09-14T22:36:40.139Z,25.60
2018-09-14T22:39:12.839Z,25.60
2018-09-14T22:41:43.950Z,25.40
2018-09-14T22:44:14.997Z,25.30
2018-09-14T22:46:46.037Z,25.10
2018-09-14T22:49:17.078Z,24.80
2018-09-14T22:51:48.084Z,24.60
2018-09-14T22:54:19.112Z,24.50
2018-09-14T22:56:50.215Z,24.40
2018-09-14T22:59:21.267Z,24.20
2018-09-14T23:01:53.940Z,24.00
2018-09-14T23:04:25.107Z,23.80
2018-09-14T23:06:56.219Z,23.50
2018-09-14T23:09:27.213Z,23.30
2018-09-14T23:11:58.251Z,23.00
2018-09-14T23:14:29.293Z,22.90
2018-09-14T23:17:00.295Z,22.70
2018-09-14T23:19:31.330Z,22.60
2018-09-14T23:22:02.462Z,22.60
2018-09-14T23:24:33.488Z,22.50
2018-09-14T23:27:04.666Z,22.30
2018-09-14T23:29:35.863Z,22.20
2018-09-14T23:32:06.887Z,22.00
2018-09-14T23:34:37.963Z,21.80
2018-09-14T23:37:09.023Z,21.60
2018-09-14T23:39:40.055Z,21.50
2018-09-14T23:42:11.056Z,21.50
2018-09-14T23:44:42.444Z,21.40
2018-09-14T23:47:13.442Z,21.40
2018-09-14T23:49:44.454Z,21.40
2018-09-14T23:52:15.551Z,21.30
2018-09-14T23:54:46.599Z,21.10
2018-09-14T23:57:17.708Z,21.00
2018-09-14T23:59:48.920Z,20.90
